Time;durP1;ratioP1;P1;durP2;ratioP2;P2;SDS_P1;SDS_P2;PMS_P1;PMS_P2;Temp;Humidity;BMP_temperature;BMP_pressure;BME280_temperature;BME280_humidity;BME280_pressure;Samples;Min_cycle;Max_cycle;Signal;HPM_P1;HPM_P2
2023/05/23 00:03:24;;;;;;;9.37;8.57;;;21.70;29.50;;;;;;10447237;28;20229;-70
2023/05/23 00:08:28;;;;;;;8.17;7.57;;;21.70;29.70;;;;;;10451319;28;20239;-70
2023/05/23 00:13:33;;;;;;;8.93;8.10;;;21.70;30.00;;;;;;10450058;28;20278;-70
2023/05/23 00:18:37;;;;;;;8.33;7.73;;;21.70;29.90;;;;;;10446850;28;20242;-70
2023/05/23 00:23:42;;;;;;;8.73;8.03;;;21.70;29.70;;;;;;10448058;28;20242;-70
2023/05/23 00:28:45;;;;;;;8.33;7.63;;;21.60;30.10;;;;;;10450396;28;20320;-70
2023/05/23 00:33:48;;;;;;;8.57;7.77;;;21.60;29.80;;;;;;10446365;28;20233;-70
2023/05/23 00:38:53;;;;;;;9.03;8.23;;;21.50;29.90;;;;;;10444992;28;20236;-70
2023/05/23 00:43:58;;;;;;;9.10;8.40;;;21.50;30.50;;;;;;10446289;28;20701;-70
2023/05/23 00:49:02;;;;;;;9.87;8.97;;;21.50;30.50;;;;;;10446483;28;20232;-70
2023/05/23 00:54:07;;;;;;;9.20;8.40;;;21.50;30.30;;;;;;10449838;28;20221;-70
2023/05/23 00:59:10;;;;;;;9.60;8.80;;;21.50;30.90;;;;;;10446040;28;20252;-71
2023/05/23 01:04:15;;;;;;;8.57;7.90;;;21.50;30.60;;;;;;10450972;28;20224;-70
2023/05/23 01:09:21;;;;;;;9.37;8.57;;;21.40;30.70;;;;;;10450387;28;20250;-70
2023/05/23 01:14:33;;;;;;;9.83;9.03;;;21.40;31.70;;;;;;10444438;28;20255;-70
2023/05/23 01:19:59;;;;;;;9.27;8.37;;;21.40;31.90;;;;;;10438933;28;20263;-70
2023/05/23 01:25:11;;;;;;;9.40;8.60;;;21.40;31.90;;;;;;10442300;28;20225;-70
2023/05/23 01:30:19;;;;;;;8.30;7.70;;;21.40;31.90;;;;;;10441460;28;20647;-70
2023/05/23 01:35:26;;;;;;;9.27;8.50;;;21.40;32.50;;;;;;10442792;28;20232;-70
2023/05/23 01:40:29;;;;;;;9.63;8.83;;;21.40;32.20;;;;;;10450009;28;20291;-70
2023/05/23 01:45:34;;;;;;;10.07;9.27;;;21.40;31.70;;;;;;10443805;28;20221;-70
2023/05/23 01:50:38;;;;;;;9.70;8.90;;;21.30;32.40;;;;;;10450854;28;20243;-71
2023/05/23 01:55:41;;;;;;;10.00;9.00;;;21.30;32.00;;;;;;10443337;28;20580;-70
2023/05/23 02:00:46;;;;;;;8.87;8.07;;;21.30;32.30;;;;;;10447908;28;20237;-70
2023/05/23 02:05:49;;;;;;;9.90;9.00;;;21.30;32.70;;;;;;10443541;28;20233;-70
2023/05/23 02:10:52;;;;;;;10.57;9.67;;;21.30;32.20;;;;;;10446753;28;20232;-70
2023/05/23 02:15:57;;;;;;;10.40;9.50;;;21.30;32.30;;;;;;10449706;28;20232;-70
2023/05/23 02:21:00;;;;;;;8.60;7.80;;;21.30;32.80;;;;;;10451159;28;20446;-72
2023/05/23 02:26:03;;;;;;;9.07;8.30;;;21.20;32.10;;;;;;10445976;28;20228;-70
2023/05/23 02:31:08;;;;;;;10.03;9.03;;;21.20;32.40;;;;;;10444062;28;20232;-70
2023/05/23 02:36:11;;;;;;;9.33;8.60;;;21.20;33.00;;;;;;10439598;28;20221;-70
2023/05/23 02:41:14;;;;;;;10.03;9.17;;;21.20;32.50;;;;;;10447777;28;20232;-70
2023/05/23 02:46:19;;;;;;;10.33;9.53;;;21.20;32.60;;;;;;10449376;28;20659;-70
2023/05/23 02:51:22;;;;;;;9.30;8.57;;;21.10;33.10;;;;;;10444141;28;20237;-71
2023/05/23 02:56:25;;;;;;;11.33;9.40;;;21.10;32.50;;;;;;10446914;28;20260;-71
2023/05/23 03:01:30;;;;;;;11.07;9.83;;;21.00;32.70;;;;;;10446768;28;20241;-70
2023/05/23 03:06:35;;;;;;;10.57;9.57;;;20.90;33.30;;;;;;10441652;28;20241;-70
2023/05/23 03:11:39;;;;;;;10.50;9.60;;;20.90;33.00;;;;;;10442569;28;20228;-70
2023/05/23 03:16:44;;;;;;;11.63;10.50;;;20.80;33.10;;;;;;10442488;28;20243;-71
2023/05/23 03:21:49;;;;;;;8.90;8.20;;;20.80;33.60;;;;;;10447894;28;20304;-70
2023/05/23 03:26:52;;;;;;;10.97;10.07;;;20.60;32.70;;;;;;10444458;28;20227;-70
2023/05/23 03:31:56;;;;;;;11.90;10.70;;;20.50;33.10;;;;;;10439718;28;20259;-70
2023/05/23 03:37:00;;;;;;;10.27;9.47;;;20.30;34.00;;;;;;10445664;28;20224;-70
2023/05/23 03:42:03;;;;;;;11.00;10.10;;;20.30;33.50;;;;;;10442922;28;20250;-71
2023/05/23 03:47:08;;;;;;;11.10;10.20;;;20.30;33.90;;;;;;10436638;28;20693;-70
2023/05/23 03:52:11;;;;;;;11.80;10.90;;;20.20;34.40;;;;;;10439160;28;20748;-70
2023/05/23 03:57:14;;;;;;;11.83;10.83;;;20.20;34.30;;;;;;10441670;28;20256;-70
2023/05/23 04:02:18;;;;;;;12.10;11.07;;;20.20;34.40;;;;;;10443414;28;20217;-71
2023/05/23 04:07:22;;;;;;;12.23;11.03;;;20.10;35.30;;;;;;10442130;28;20671;-71
2023/05/23 04:12:25;;;;;;;12.77;11.47;;;20.10;35.00;;;;;;10434753;28;20586;-70
2023/05/23 04:17:30;;;;;;;12.80;11.80;;;20.00;35.20;;;;;;10438671;28;21032;-70
2023/05/23 04:22:33;;;;;;;13.03;11.80;;;20.00;36.40;;;;;;10442459;28;20240;-70
2023/05/23 04:27:38;;;;;;;12.97;11.73;;;19.90;35.70;;;;;;10443489;28;20233;-70
2023/05/23 04:32:44;;;;;;;12.83;11.73;;;19.90;36.30;;;;;;10451431;28;20232;-70
2023/05/23 04:37:48;;;;;;;13.03;11.87;;;19.80;36.50;;;;;;10448913;28;20239;-71
2023/05/23 04:42:51;;;;;;;12.37;11.40;;;19.80;36.30;;;;;;10450373;28;20255;-70
2023/05/23 04:47:55;;;;;;;12.70;11.50;;;19.80;36.30;;;;;;10442497;28;20229;-71
2023/05/23 04:52:59;;;;;;;14.53;13.03;;;19.90;37.30;;;;;;10441379;28;20232;-71
2023/05/23 04:58:02;;;;;;;14.20;12.90;;;20.00;36.50;;;;;;10439309;28;20272;-72
2023/05/23 05:03:08;;;;;;;13.97;12.77;;;20.00;36.50;;;;;;10448286;28;20233;-71
2023/05/23 05:08:13;;;;;;;14.67;13.37;;;20.10;37.30;;;;;;10445411;28;20225;-72
2023/05/23 05:13:16;;;;;;;13.63;12.43;;;20.10;36.60;;;;;;10448518;28;20232;-71
2023/05/23 05:18:21;;;;;;;14.00;12.70;;;20.20;36.70;;;;;;10437173;28;20228;-72
2023/05/23 05:23:27;;;;;;;12.77;11.67;;;20.20;37.70;;;;;;10445819;28;20236;-71
2023/05/23 05:28:31;;;;;;;13.13;11.93;;;20.30;37.80;;;;;;10433555;28;20282;-72
2023/05/23 05:33:36;;;;;;;13.53;12.33;;;20.40;36.90;;;;;;10435747;28;20233;-71
2023/05/23 05:38:39;;;;;;;13.80;12.60;;;20.50;38.00;;;;;;10439892;28;20236;-71
2023/05/23 05:43:43;;;;;;;14.17;12.87;;;20.60;37.40;;;;;;10449433;28;20247;-72
2023/05/23 05:48:47;;;;;;;13.60;12.40;;;20.60;37.40;;;;;;10443109;28;20276;-72
2023/05/23 05:53:50;;;;;;;14.27;12.97;;;20.70;38.00;;;;;;10437608;28;20237;-70
2023/05/23 05:58:54;;;;;;;13.30;12.13;;;20.80;37.40;;;;;;10438560;28;20775;-71
2023/05/23 06:03:58;;;;;;;13.87;12.67;;;20.90;37.50;;;;;;10446515;28;20227;-70
2023/05/23 06:09:02;;;;;;;14.07;12.67;;;21.00;38.40;;;;;;10440428;28;20229;-71
2023/05/23 06:14:05;;;;;;;13.97;12.77;;;21.00;37.40;;;;;;10438681;28;20233;-70
2023/05/23 06:19:10;;;;;;;14.33;13.03;;;21.10;37.50;;;;;;10446630;28;20221;-72
2023/05/23 06:24:13;;;;;;;13.43;12.23;;;21.20;38.10;;;;;;10447643;28;20697;-71
2023/05/23 06:29:16;;;;;;;13.10;11.90;;;21.20;37.60;;;;;;10457994;28;20238;-71
2023/05/23 06:34:21;;;;;;;14.40;12.90;;;21.20;37.60;;;;;;10444816;28;20303;-71
2023/05/23 06:39:24;;;;;;;13.83;12.60;;;21.30;38.50;;;;;;10445393;28;20236;-71
2023/05/23 06:44:27;;;;;;;14.00;12.73;;;21.30;37.70;;;;;;10445151;28;20336;-71
2023/05/23 06:49:32;;;;;;;13.73;12.43;;;21.40;38.00;;;;;;10454835;28;20315;-71
2023/05/23 06:54:35;;;;;;;13.80;12.50;;;21.50;38.50;;;;;;10449933;28;20228;-71
2023/05/23 06:59:38;;;;;;;14.57;13.13;;;21.50;38.10;;;;;;10442361;28;20239;-71
2023/05/23 07:04:43;;;;;;;14.83;13.47;;;21.70;38.00;;;;;;10436552;28;20231;-71
2023/05/23 07:09:46;;;;;;;15.30;13.90;;;21.70;39.10;;;;;;10449682;28;20275;-71
2023/05/23 07:14:49;;;;;;;14.17;12.87;;;21.80;38.10;;;;;;10450611;28;20763;-71
2023/05/23 07:19:54;;;;;;;14.17;12.87;;;21.90;38.20;;;;;;10448544;28;20814;-71
2023/05/23 07:24:57;;;;;;;14.20;13.00;;;22.00;38.30;;;;;;10438368;28;20247;-71
2023/05/23 07:30:00;;;;;;;14.10;12.90;;;22.10;38.40;;;;;;10440108;28;20314;-71
2023/05/23 07:35:06;;;;;;;13.73;12.50;;;22.00;38.30;;;;;;10433166;28;20310;-71
2023/05/23 07:40:09;;;;;;;13.47;12.27;;;21.90;38.20;;;;;;10445365;28;20661;-71
2023/05/23 07:45:13;;;;;;;14.63;13.23;;;22.00;38.30;;;;;;10450406;28;20252;-71
2023/05/23 07:50:17;;;;;;;14.43;13.13;;;22.00;38.30;;;;;;10444574;28;21010;-72
2023/05/23 07:55:21;;;;;;;12.90;11.70;;;22.00;38.30;;;;;;10438320;28;20233;-71
2023/05/23 08:00:24;;;;;;;14.47;13.13;;;22.00;38.30;;;;;;10448036;28;20240;-71
2023/05/23 08:05:28;;;;;;;13.50;12.30;;;22.00;38.40;;;;;;10481635;28;20862;-70
2023/05/23 08:10:32;;;;;;;12.93;11.83;;;22.20;38.40;;;;;;10488709;28;20931;-70
2023/05/23 08:15:35;;;;;;;13.47;12.20;;;22.20;38.40;;;;;;10488301;28;20315;-70
2023/05/23 08:20:40;;;;;;;13.43;12.23;;;22.20;38.40;;;;;;10473964;28;20240;-70
2023/05/23 08:25:44;;;;;;;13.17;11.97;;;22.30;38.50;;;;;;10452182;28;20424;-70
2023/05/23 08:30:47;;;;;;;13.00;11.90;;;22.40;38.60;;;;;;10442940;28;20243;-70
2023/05/23 08:35:51;;;;;;;10.70;9.80;;;22.50;38.70;;;;;;10457808;28;20344;-70
2023/05/23 08:40:56;;;;;;;11.97;11.07;;;22.60;38.70;;;;;;10444902;28;20236;-70
2023/05/23 08:45:59;;;;;;;12.13;10.93;;;22.70;38.90;;;;;;10451892;28;20320;-70
2023/05/23 08:51:05;;;;;;;10.97;10.07;;;22.80;38.70;;;;;;10446745;28;20240;-70
2023/05/23 08:56:10;;;;;;;11.13;10.17;;;23.00;39.10;;;;;;10444430;28;20234;-70
2023/05/23 09:01:13;;;;;;;12.10;11.10;;;23.20;38.80;;;;;;10446854;28;20240;-70
2023/05/23 09:06:21;;;;;;;11.57;10.67;;;23.30;38.10;;;;;;10443661;28;20252;-70
2023/05/23 09:11:25;;;;;;;12.43;11.33;;;23.40;38.60;;;;;;10442583;28;20228;-70
2023/05/23 09:16:33;;;;;;;10.97;10.07;;;23.40;37.40;;;;;;10449588;28;20307;-70
2023/05/23 09:21:42;;;;;;;11.43;10.47;;;23.40;37.20;;;;;;10446261;28;20240;-70
2023/05/23 09:26:47;;;;;;;11.83;10.73;;;23.30;37.10;;;;;;10448538;28;20233;-70
2023/05/23 09:31:50;;;;;;;11.10;10.20;;;23.30;37.40;;;;;;10445949;28;20383;-70
2023/05/23 09:36:56;;;;;;;11.43;10.43;;;23.30;37.40;;;;;;10443895;28;20279;-70
2023/05/23 09:42:01;;;;;;;10.43;9.53;;;23.30;37.70;;;;;;10441776;28;20347;-70
2023/05/23 09:47:07;;;;;;;11.57;10.63;;;23.30;37.50;;;;;;10446242;28;20232;-70
2023/05/23 09:52:12;;;;;;;11.10;10.17;;;23.40;37.20;;;;;;10447935;28;20264;-70
2023/05/23 09:57:16;;;;;;;10.37;9.47;;;23.40;37.10;;;;;;10439697;28;20271;-70
2023/05/23 10:02:35;;;;;;;9.83;8.93;;;23.40;37.10;;;;;;10448370;28;20303;-70
2023/05/23 10:07:42;;;;;;;10.50;9.70;;;23.50;37.70;;;;;;10448315;28;20237;-70
2023/05/23 10:12:50;;;;;;;9.47;8.70;;;23.60;36.80;;;;;;10447837;28;20337;-70
2023/05/23 10:18:02;;;;;;;9.13;8.10;;;23.70;36.80;;;;;;10444404;28;20236;-70
2023/05/23 10:23:07;;;;;;;9.20;8.37;;;23.70;36.30;;;;;;10440086;28;20315;-72
2023/05/23 10:28:11;;;;;;;8.80;8.10;;;23.70;35.60;;;;;;10444390;28;20232;-70
2023/05/23 10:33:16;;;;;;;9.47;8.60;;;23.70;36.10;;;;;;10438712;28;20314;-71
2023/05/23 10:38:31;;;;;;;9.67;8.90;;;23.60;35.90;;;;;;10449063;28;20225;-70
2023/05/23 10:43:42;;;;;;;10.00;9.20;;;23.60;35.70;;;;;;10435218;28;20974;-70
2023/05/23 10:48:46;;;;;;;9.60;8.70;;;23.60;35.60;;;;;;10448685;28;20267;-70
2023/05/23 10:53:55;;;;;;;9.43;8.63;;;23.60;36.30;;;;;;10440896;28;20235;-70
2023/05/23 10:58:58;;;;;;;9.33;8.53;;;23.70;36.10;;;;;;10433993;28;20236;-72
2023/05/23 11:04:05;;;;;;;10.73;9.57;;;23.90;36.30;;;;;;10439311;28;20224;-72
2023/05/23 11:09:13;;;;;;;9.93;9.07;;;24.00;35.30;;;;;;10434166;28;20947;-72
2023/05/23 11:14:17;;;;;;;9.50;8.73;;;24.20;35.30;;;;;;10435698;28;20239;-73
2023/05/23 11:19:28;;;;;;;10.10;9.20;;;24.20;35.20;;;;;;10438962;28;20233;-72
2023/05/23 11:24:52;;;;;;;10.60;9.70;;;24.20;34.20;;;;;;10418085;28;20257;-72
2023/05/23 11:30:02;;;;;;;9.10;8.20;;;24.30;34.30;;;;;;10420254;28;20232;-71
2023/05/23 11:35:08;;;;;;;10.43;9.50;;;24.30;34.00;;;;;;10429613;28;20323;-71
2023/05/23 11:40:30;;;;;;;9.27;8.43;;;24.40;33.60;;;;;;10431026;28;20933;-71
2023/05/23 11:45:35;;;;;;;9.03;8.33;;;24.50;33.70;;;;;;10432172;28;20232;-72
2023/05/23 11:50:46;;;;;;;9.23;8.43;;;24.50;33.70;;;;;;10430898;28;20286;-72
2023/05/23 11:55:53;;;;;;;9.13;8.33;;;24.60;33.40;;;;;;10434613;28;20232;-73
2023/05/23 12:01:00;;;;;;;9.50;8.60;;;24.60;33.30;;;;;;10428125;28;20274;-73
2023/05/23 12:06:03;;;;;;;8.83;8.07;;;24.70;33.00;;;;;;10424095;28;20235;-73
2023/05/23 12:11:08;;;;;;;9.00;8.30;;;24.70;33.10;;;;;;10427249;28;20844;-73
2023/05/23 12:16:14;;;;;;;8.87;8.07;;;24.70;32.50;;;;;;10425847;28;20332;-73
2023/05/23 12:21:17;;;;;;;9.23;8.43;;;24.70;32.60;;;;;;10434589;28;20233;-72
2023/05/23 12:26:23;;;;;;;8.37;7.67;;;24.70;33.20;;;;;;10427146;28;20287;-72
2023/05/23 12:31:27;;;;;;;9.90;9.10;;;24.90;32.90;;;;;;10430673;28;20839;-72
2023/05/23 12:36:31;;;;;;;9.57;8.77;;;25.00;32.70;;;;;;10429572;28;20229;-72
2023/05/23 12:41:36;;;;;;;9.20;8.50;;;25.10;32.40;;;;;;10430187;28;20237;-72
2023/05/23 12:46:39;;;;;;;9.30;8.60;;;25.10;31.90;;;;;;10428742;28;20320;-73
2023/05/23 12:51:43;;;;;;;8.53;7.80;;;25.10;31.70;;;;;;10431957;28;20256;-74
2023/05/23 12:56:47;;;;;;;8.17;7.47;;;25.00;32.00;;;;;;10430151;28;20806;-74
2023/05/23 13:01:51;;;;;;;8.17;7.57;;;25.00;32.10;;;;;;10443076;28;20351;-71
2023/05/23 13:06:54;;;;;;;8.10;7.37;;;25.00;31.80;;;;;;10435361;28;20320;-73
2023/05/23 13:11:59;;;;;;;7.40;6.80;;;25.00;31.60;;;;;;10438195;28;20229;-72
2023/05/23 13:17:03;;;;;;;7.77;7.17;;;25.00;31.00;;;;;;10438010;28;20254;-72
2023/05/23 13:22:09;;;;;;;7.67;7.07;;;25.00;30.60;;;;;;10441050;28;20237;-72
2023/05/23 13:27:13;;;;;;;7.03;6.43;;;24.90;30.40;;;;;;10440299;28;20229;-70
2023/05/23 13:32:17;;;;;;;7.17;6.57;;;24.80;30.20;;;;;;10440903;28;20221;-70
2023/05/23 13:37:20;;;;;;;6.67;6.07;;;24.70;30.40;;;;;;10418963;28;20244;-71
2023/05/23 13:42:25;;;;;;;6.33;5.83;;;24.60;31.10;;;;;;10440673;28;21096;-71
2023/05/23 13:47:29;;;;;;;6.10;5.60;;;24.70;30.30;;;;;;10436326;28;20709;-71
2023/05/23 13:52:32;;;;;;;6.47;5.83;;;24.60;30.30;;;;;;10441046;28;20233;-70
2023/05/23 13:57:37;;;;;;;5.00;4.60;;;24.50;29.90;;;;;;10443607;28;20247;-68
2023/05/23 14:02:41;;;;;;;5.10;4.70;;;24.50;29.40;;;;;;10446403;28;20654;-69
2023/05/23 14:07:46;;;;;;;5.50;5.10;;;24.40;29.50;;;;;;10443809;28;20291;-69
2023/05/23 14:12:50;;;;;;;5.77;5.27;;;24.30;30.30;;;;;;10443269;28;20256;-69
2023/05/23 14:17:55;;;;;;;4.60;4.30;;;24.30;29.60;;;;;;10442731;28;20233;-70
2023/05/23 14:22:59;;;;;;;4.67;4.37;;;24.30;29.70;;;;;;10442851;28;20753;-69
2023/05/23 14:28:04;;;;;;;4.60;4.20;;;24.30;29.60;;;;;;10440522;28;20275;-69
2023/05/23 14:33:07;;;;;;;4.47;4.17;;;24.30;29.40;;;;;;10443185;28;20236;-69
2023/05/23 14:38:13;;;;;;;4.43;4.07;;;24.20;29.10;;;;;;10442645;28;20706;-69
2023/05/23 14:43:17;;;;;;;4.60;4.30;;;24.20;28.90;;;;;;10443451;28;20221;-71
2023/05/23 14:48:21;;;;;;;4.13;3.67;;;24.20;28.60;;;;;;10448796;28;20232;-71
2023/05/23 14:53:26;;;;;;;4.53;3.47;;;24.20;29.30;;;;;;10437492;28;20235;-71
2023/05/23 14:58:30;;;;;;;3.50;3.10;;;24.20;29.10;;;;;;10430591;28;20233;-71
2023/05/23 15:03:34;;;;;;;3.57;3.10;;;24.20;28.50;;;;;;10433728;28;20229;-71
2023/05/23 15:08:37;;;;;;;3.20;3.00;;;24.20;29.20;;;;;;10427752;28;20988;-71
2023/05/23 15:13:41;;;;;;;4.73;3.20;;;24.20;28.80;;;;;;10435837;28;20629;-71
2023/05/23 15:18:44;;;;;;;3.23;2.93;;;24.20;28.70;;;;;;10431590;28;20232;-71
2023/05/23 15:23:48;;;;;;;3.30;3.10;;;24.10;28.70;;;;;;10443577;28;21033;-71
2023/05/23 15:28:52;;;;;;;2.80;2.70;;;24.10;28.50;;;;;;10433901;28;20646;-71
2023/05/23 15:33:55;;;;;;;3.07;2.87;;;24.10;28.10;;;;;;10437522;28;20225;-71
2023/05/23 15:38:59;;;;;;;3.10;2.90;;;24.10;28.30;;;;;;10428311;28;20225;-71
2023/05/23 15:44:03;;;;;;;3.30;2.67;;;24.00;28.10;;;;;;10435816;28;20697;-70
2023/05/23 15:49:06;;;;;;;3.30;3.00;;;24.00;28.40;;;;;;10429520;28;21163;-70
2023/05/23 15:54:28;;;;;;;2.93;2.73;;;24.00;28.10;;;;;;10431299;28;20224;-72
2023/05/23 15:59:32;;;;;;;2.97;2.77;;;23.90;28.40;;;;;;10434863;28;20232;-72
2023/05/23 16:04:35;;;;;;;2.80;2.60;;;23.80;27.90;;;;;;10439681;28;20325;-73
2023/05/23 16:09:39;;;;;;;2.80;2.60;;;23.70;28.20;;;;;;10431339;28;20702;-73
2023/05/23 16:14:43;;;;;;;2.60;2.40;;;23.70;28.10;;;;;;10433265;28;20225;-72
2023/05/23 16:19:46;;;;;;;2.37;2.27;;;23.70;27.80;;;;;;10424375;28;20268;-73
2023/05/23 16:24:49;;;;;;;2.10;2.00;;;23.70;28.30;;;;;;10442885;28;21055;-72
2023/05/23 16:29:56;;;;;;;2.30;2.20;;;23.70;28.20;;;;;;10443334;28;20246;-74
2023/05/23 16:34:59;;;;;;;2.23;2.13;;;23.70;27.80;;;;;;10444192;28;20228;-75
2023/05/23 16:40:03;;;;;;;2.00;1.90;;;23.80;27.90;;;;;;10438987;28;20249;-74
2023/05/23 16:45:08;;;;;;;2.30;2.17;;;23.70;27.80;;;;;;10437703;28;20228;-74
2023/05/23 16:50:12;;;;;;;2.40;2.20;;;23.70;27.80;;;;;;10441010;28;20243;-74
2023/05/23 16:55:15;;;;;;;1.90;1.80;;;23.70;27.80;;;;;;10441210;28;20229;-74
2023/05/23 17:00:20;;;;;;;3.03;2.10;;;23.60;27.80;;;;;;10447228;28;20224;-73
2023/05/23 17:05:23;;;;;;;2.27;1.90;;;23.60;27.80;;;;;;10439292;28;20312;-73
2023/05/23 17:10:27;;;;;;;2.10;1.90;;;23.60;27.80;;;;;;10442860;28;20839;-73
2023/05/23 17:15:31;;;;;;;2.40;2.30;;;23.60;27.80;;;;;;10445917;28;20224;-74
2023/05/23 17:20:35;;;;;;;2.03;1.93;;;23.60;27.80;;;;;;10444418;28;20296;-72
2023/05/23 17:25:38;;;;;;;4.03;2.27;;;23.60;27.80;;;;;;10453860;28;20574;-72
2023/05/23 17:30:43;;;;;;;2.30;2.20;;;23.60;27.80;;;;;;10423971;28;20236;-72
2023/05/23 17:35:47;;;;;;;2.20;2.10;;;23.60;27.80;;;;;;10452629;28;20743;-72
2023/05/23 17:40:51;;;;;;;2.30;2.20;;;23.60;27.80;;;;;;10452038;28;20243;-72
2023/05/23 17:45:56;;;;;;;2.40;2.30;;;23.60;27.80;;;;;;10426659;28;20316;-72
2023/05/23 17:51:00;;;;;;;2.40;2.20;;;23.60;27.80;;;;;;10411067;28;20238;-72
2023/05/23 17:56:03;;;;;;;2.40;2.20;;;23.60;27.80;;;;;;10467654;28;20465;-72
2023/05/23 18:01:08;;;;;;;2.37;2.20;;;23.50;27.70;;;;;;10432949;28;20803;-74
2023/05/23 18:06:11;;;;;;;2.10;2.00;;;23.50;27.70;;;;;;10449069;28;20235;-73
2023/05/23 18:11:15;;;;;;;2.20;2.10;;;23.40;27.60;;;;;;10456935;28;20336;-74
2023/05/23 18:16:21;;;;;;;2.13;2.03;;;23.30;27.50;;;;;;10450631;28;20258;-74
2023/05/23 18:21:26;;;;;;;2.10;2.00;;;23.10;27.40;;;;;;10444784;28;20653;-72
2023/05/23 18:26:32;;;;;;;3.10;2.10;;;23.00;27.70;;;;;;10442444;28;20312;-73
2023/05/23 18:31:36;;;;;;;1.93;1.83;;;22.80;27.90;;;;;;10440075;28;20241;-74
2023/05/23 18:36:41;;;;;;;1.70;1.60;;;22.80;28.10;;;;;;10441069;28;20328;-75
2023/05/23 18:41:44;;;;;;;2.23;1.97;;;22.60;28.20;;;;;;10442684;28;20320;-74
2023/05/23 18:46:49;;;;;;;2.07;1.97;;;22.60;28.40;;;;;;10442469;28;20259;-75
2023/05/23 18:51:53;;;;;;;2.33;2.00;;;22.60;28.60;;;;;;10451381;28;20225;-74
2023/05/23 18:56:56;;;;;;;2.20;2.10;;;22.60;28.50;;;;;;10442090;28;20324;-73
2023/05/23 19:02:00;;;;;;;1.97;1.87;;;22.50;28.50;;;;;;10445639;28;20217;-73
2023/05/23 19:07:06;;;;;;;2.27;2.17;;;22.40;28.70;;;;;;10442728;28;20209;-73
2023/05/23 19:12:09;;;;;;;2.97;2.23;;;22.40;28.80;;;;;;10444689;28;20227;-73
2023/05/23 19:17:13;;;;;;;2.13;2.03;;;22.30;28.90;;;;;;10448968;28;20747;-73
2023/05/23 19:22:17;;;;;;;2.27;2.07;;;22.30;29.00;;;;;;10438463;28;20217;-72
2023/05/23 19:27:20;;;;;;;2.63;2.17;;;22.20;28.90;;;;;;10443949;28;20236;-73
2023/05/23 19:32:25;;;;;;;2.07;1.97;;;22.20;29.10;;;;;;10443133;28;20865;-73
2023/05/23 19:37:28;;;;;;;2.43;2.23;;;22.20;29.30;;;;;;10440158;28;20232;-73
2023/05/23 19:42:31;;;;;;;3.43;1.90;;;22.10;29.30;;;;;;10436975;28;21031;-73
2023/05/23 19:47:36;;;;;;;2.20;2.10;;;22.10;29.40;;;;;;10426984;28;20225;-73
2023/05/23 19:52:40;;;;;;;2.20;2.00;;;22.10;29.50;;;;;;10431066;28;20267;-73
2023/05/23 19:57:43;;;;;;;2.30;2.10;;;22.10;29.50;;;;;;10434736;28;20309;-73
2023/05/23 20:02:49;;;;;;;2.37;2.17;;;22.10;29.40;;;;;;10437449;28;20228;-72
2023/05/23 20:07:52;;;;;;;2.70;2.50;;;22.00;29.50;;;;;;10445201;28;20267;-72
2023/05/23 20:12:55;;;;;;;3.17;2.97;;;21.90;29.30;;;;;;10449145;28;20727;-72
2023/05/23 20:18:00;;;;;;;3.20;2.67;;;21.70;29.40;;;;;;10443284;28;20739;-72
2023/05/23 20:23:04;;;;;;;2.83;2.53;;;21.60;29.80;;;;;;10448998;28;20235;-72
2023/05/23 20:28:07;;;;;;;2.40;2.30;;;21.50;29.70;;;;;;10441304;28;20289;-72
2023/05/23 20:33:12;;;;;;;2.47;2.30;;;21.30;29.80;;;;;;10439362;28;20854;-72
2023/05/23 20:38:19;;;;;;;2.47;2.37;;;21.30;30.30;;;;;;10440729;28;21163;-72
2023/05/23 20:43:22;;;;;;;2.70;2.50;;;21.20;30.10;;;;;;10449490;28;20239;-72
2023/05/23 20:48:27;;;;;;;2.67;2.13;;;21.10;30.20;;;;;;10442080;28;20239;-72
2023/05/23 20:53:30;;;;;;;2.60;2.40;;;21.10;30.30;;;;;;10437811;28;20228;-72
2023/05/23 20:58:33;;;;;;;4.47;2.40;;;21.10;30.30;;;;;;10439708;28;20236;-72
2023/05/23 21:03:38;;;;;;;2.37;2.17;;;21.00;30.20;;;;;;10441229;28;20240;-72
2023/05/23 21:08:41;;;;;;;2.57;2.30;;;20.90;30.50;;;;;;10445739;28;20244;-72
2023/05/23 21:13:44;;;;;;;2.00;1.90;;;20.70;30.20;;;;;;10441469;28;20316;-72
2023/05/23 21:18:49;;;;;;;2.20;2.10;;;20.50;30.30;;;;;;10442497;28;20233;-72
2023/05/23 21:23:52;;;;;;;2.23;2.13;;;20.30;30.90;;;;;;10437524;28;20283;-72
2023/05/23 21:28:55;;;;;;;2.10;2.00;;;20.00;30.60;;;;;;10439582;28;20224;-71
2023/05/23 21:34:00;;;;;;;1.90;1.80;;;19.80;31.00;;;;;;10443763;28;20221;-72
2023/05/23 21:39:23;;;;;;;2.00;1.90;;;19.50;31.70;;;;;;10439341;28;20239;-72
2023/05/23 21:44:31;;;;;;;2.13;2.03;;;19.40;31.50;;;;;;10448193;28;20646;-72
2023/05/23 21:49:36;;;;;;;2.03;1.93;;;19.40;31.70;;;;;;10429261;28;20312;-72
2023/05/23 21:54:39;;;;;;;1.97;1.87;;;19.40;32.20;;;;;;10438079;28;20657;-72
2023/05/23 21:59:43;;;;;;;2.23;2.03;;;19.30;31.70;;;;;;10447042;28;20734;-72
2023/05/23 22:04:47;;;;;;;1.90;1.80;;;19.30;31.90;;;;;;10447276;28;20231;-72
2023/05/23 22:09:52;;;;;;;2.00;1.80;;;19.10;32.20;;;;;;10436387;28;20642;-71
2023/05/23 22:14:56;;;;;;;2.57;2.10;;;19.00;32.00;;;;;;10432771;28;20983;-72
2023/05/23 22:20:01;;;;;;;2.47;2.27;;;19.00;32.20;;;;;;10430250;28;20233;-72
2023/05/23 22:25:05;;;;;;;2.33;2.13;;;18.90;32.70;;;;;;10441232;28;20291;-72
2023/05/23 22:30:08;;;;;;;2.10;1.90;;;18.80;32.50;;;;;;10427694;28;20983;-72
2023/05/23 22:35:13;;;;;;;2.53;2.37;;;18.70;32.60;;;;;;10433997;28;20220;-72
2023/05/23 22:40:16;;;;;;;2.30;2.20;;;18.70;33.10;;;;;;10431882;28;20228;-72
2023/05/23 22:45:20;;;;;;;2.10;2.00;;;18.60;33.10;;;;;;10437794;28;20225;-72
2023/05/23 22:50:25;;;;;;;2.00;1.90;;;18.60;33.10;;;;;;10440172;28;20328;-72
2023/05/23 22:55:29;;;;;;;2.40;2.10;;;18.60;33.50;;;;;;10439803;28;20249;-71
2023/05/23 23:00:32;;;;;;;2.30;2.10;;;18.60;33.20;;;;;;10438372;28;20229;-72
2023/05/23 23:05:36;;;;;;;1.90;1.80;;;18.60;33.00;;;;;;10434343;28;20224;-73
2023/05/23 23:10:40;;;;;;;2.13;2.03;;;18.60;33.50;;;;;;10438779;28;20315;-72
2023/05/23 23:15:44;;;;;;;2.63;2.43;;;18.50;33.30;;;;;;10439622;28;20256;-75
2023/05/23 23:20:48;;;;;;;2.63;2.30;;;18.50;33.40;;;;;;10445663;28;20296;-75
2023/05/23 23:25:51;;;;;;;3.03;2.30;;;18.40;33.70;;;;;;10428837;28;20917;-75
2023/05/23 23:30:55;;;;;;;2.73;2.27;;;18.40;33.50;;;;;;10434635;28;20249;-75
2023/05/23 23:35:59;;;;;;;2.43;2.23;;;18.40;33.50;;;;;;10441219;28;20264;-75
2023/05/23 23:41:02;;;;;;;2.37;2.20;;;18.40;33.90;;;;;;10438901;28;20225;-75
2023/05/23 23:46:06;;;;;;;2.43;2.23;;;18.40;33.70;;;;;;10441941;28;20304;-75
2023/05/23 23:51:11;;;;;;;2.20;2.10;;;18.40;33.70;;;;;;10436397;28;20259;-75
2023/05/23 23:56:14;;;;;;;2.20;2.10;;;18.40;34.10;;;;;;10431299;28;20225;-75
